Terminal Aerodrome Forecast
Issued by NWS

Home | Current Version | Previous Version | Text Only | Print | Product List | Glossary On
Versions: 1 2 3 4 5 6 7 8 9 10 11 12 13 14 15
000
FTUS46 KHNX 261740
TAFVIS
TAF
KVIS 261740Z 2618/2718 14004KT 3SM HZ SKC
     FM262100 31003KT 5SM HZ SKC
     FM270600 00000KT 3SM BR SKC
      TEMPO 2712/2716 1SM BR=

USA.gov is the U.S. government's official web portal to all federal, state and local government web resources and services.